createdAt,value
2022-09-12T00:00:06.169Z,95130.03
2022-09-12T00:02:34.017Z,95126.63
2022-09-12T00:05:03.425Z,95136.97
2022-09-12T00:07:31.271Z,95132.25
2022-09-12T00:09:59.128Z,95138.34
2022-09-12T00:12:27.156Z,95141.13
2022-09-12T00:14:55.006Z,95139.63
2022-09-12T00:17:22.841Z,95146.19
2022-09-12T00:19:50.751Z,95156.03
2022-09-12T00:22:20.001Z,95149.56
2022-09-12T00:24:47.845Z,95142.09
2022-09-12T00:27:15.696Z,95150.59
2022-09-12T00:29:43.579Z,95142.47
2022-09-12T00:32:11.484Z,95142.66
2022-09-12T00:34:39.453Z,95138.81
2022-09-12T00:37:07.375Z,95132.88
2022-09-12T00:39:36.761Z,95138.97
2022-09-12T00:42:05.040Z,95140.88
2022-09-12T00:44:52.013Z,95136.16
2022-09-12T00:47:26.529Z,95144.69
2022-09-12T00:50:02.389Z,95141.69
2022-09-12T00:52:35.413Z,95140.88
2022-09-12T00:55:08.944Z,95139.94
2022-09-12T00:57:41.705Z,95149.16
2022-09-12T01:00:16.116Z,95135.88
2022-09-12T01:02:46.757Z,95142.03
2022-09-12T01:05:15.224Z,95135.53
2022-09-12T01:07:44.647Z,95134.31
2022-09-12T01:10:13.931Z,95128.13
2022-09-12T01:12:43.966Z,95138.81
2022-09-12T01:15:12.577Z,95133.38
2022-09-12T01:17:52.049Z,95132.53
2022-09-12T01:20:58.040Z,95128.53
2022-09-12T01:24:10.557Z,95128.94
2022-09-12T01:27:18.643Z,95140.78
2022-09-12T01:30:05.077Z,95134.69
2022-09-12T01:32:48.024Z,95134.50
2022-09-12T01:35:24.713Z,95127.38
2022-09-12T01:38:05.611Z,95130.50
2022-09-12T01:40:41.588Z,95125.94
2022-09-12T01:43:20.653Z,95124.81
2022-09-12T01:45:57.266Z,95128.66
2022-09-12T01:48:31.192Z,95129.94
2022-09-12T01:51:06.129Z,95118.72
2022-09-12T01:53:39.276Z,95124.94
2022-09-12T01:56:11.493Z,95110.78
2022-09-12T01:58:45.422Z,95114.34
2022-09-12T02:01:18.814Z,95108.94
2022-09-12T02:03:57.232Z,95113.06
2022-09-12T02:06:28.607Z,95113.06
2022-09-12T02:09:00.656Z,95125.03
2022-09-12T02:11:32.291Z,95135.03
2022-09-12T02:14:05.557Z,95131.88
2022-09-12T02:16:36.949Z,95123.81
2022-09-12T02:19:13.706Z,95126.88
2022-09-12T02:21:49.212Z,95131.97
2022-09-12T02:24:18.498Z,95123.75
2022-09-12T02:26:50.889Z,95118.41
2022-09-12T02:29:18.945Z,95119.97
2022-09-12T02:31:49.119Z,95127.59
2022-09-12T02:34:28.927Z,95121.16
2022-09-12T02:37:04.061Z,95126.03
2022-09-12T02:39:31.986Z,95126.72
2022-09-12T02:42:02.959Z,95128.44
2022-09-12T02:44:32.900Z,95131.56
2022-09-12T02:47:05.919Z,95124.28
2022-09-12T02:49:35.397Z,95134.09
2022-09-12T02:52:04.189Z,95121.00
2022-09-12T02:54:32.463Z,95128.69
2022-09-12T02:57:00.335Z,95145.00
2022-09-12T02:59:29.107Z,95145.09
2022-09-12T03:02:13.419Z,95147.28
2022-09-12T03:05:08.579Z,95140.88
2022-09-12T03:07:51.776Z,95152.16
2022-09-12T03:10:29.332Z,95150.34
2022-09-12T03:13:07.496Z,95148.50
2022-09-12T03:15:44.871Z,95146.91
2022-09-12T03:18:27.647Z,95146.38
2022-09-12T03:21:04.184Z,95141.06
2022-09-12T03:23:38.559Z,95131.97
2022-09-12T03:26:13.879Z,95146.47
2022-09-12T03:28:43.534Z,95146.81
2022-09-12T03:31:16.113Z,95138.25
2022-09-12T03:33:44.491Z,95144.63
2022-09-12T03:36:18.436Z,95138.16
2022-09-12T03:38:46.518Z,95133.78
2022-09-12T03:41:14.525Z,95143.47
2022-09-12T03:43:42.823Z,95149.00
2022-09-12T03:46:10.760Z,95142.44
2022-09-12T03:48:38.633Z,95144.09
2022-09-12T03:51:08.660Z,95154.03
2022-09-12T03:53:38.142Z,95144.59
2022-09-12T03:56:08.616Z,95127.06
2022-09-12T03:58:37.335Z,95083.13
2022-09-12T04:01:12.299Z,95126.50
2022-09-12T04:03:41.109Z,95082.81
2022-09-12T04:06:10.331Z,95151.06
2022-09-12T04:08:40.148Z,95145.44
2022-09-12T04:11:11.079Z,95149.78
2022-09-12T04:13:40.036Z,95148.66
2022-09-12T04:16:08.586Z,95145.22
2022-09-12T04:18:36.969Z,95151.44
2022-09-12T04:21:06.288Z,95159.16
2022-09-12T04:23:34.648Z,95158.09
2022-09-12T04:26:06.508Z,95159.25
2022-09-12T04:28:35.854Z,95158.47
2022-09-12T04:31:06.089Z,95166.25
2022-09-12T04:33:34.055Z,95155.03
2022-09-12T04:36:06.870Z,95153.34
2022-09-12T04:38:35.677Z,95155.03
2022-09-12T04:41:11.722Z,95157.72
2022-09-12T04:43:39.613Z,95150.50
2022-09-12T04:46:08.523Z,95166.06
2022-09-12T04:48:36.804Z,95163.63
2022-09-12T04:51:09.025Z,95161.72
2022-09-12T04:53:37.026Z,95169.97
2022-09-12T04:56:08.367Z,95140.75
2022-09-12T04:58:36.917Z,95173.06
2022-09-12T05:01:06.440Z,95181.03
2022-09-12T05:03:34.723Z,95177.84
2022-09-12T05:06:03.847Z,95141.75
2022-09-12T05:08:31.897Z,95160.53
2022-09-12T05:11:03.808Z,95154.22
2022-09-12T05:13:34.055Z,95163.72
2022-09-12T05:16:03.677Z,95154.75
2022-09-12T05:18:33.384Z,95145.34
2022-09-12T05:21:02.435Z,95151.34
2022-09-12T05:23:30.535Z,95153.13
2022-09-12T05:25:59.991Z,95148.81
2022-09-12T05:28:33.558Z,95116.22
2022-09-12T05:31:02.980Z,95133.16
2022-09-12T05:33:31.229Z,95155.31
2022-09-12T05:35:59.147Z,95131.41
2022-09-12T05:38:29.029Z,95155.03
2022-09-12T05:41:04.725Z,95144.59
2022-09-12T05:43:34.165Z,95155.47
2022-09-12T05:46:03.498Z,95146.31
2022-09-12T05:48:31.555Z,95137.03
2022-09-12T05:51:03.835Z,95145.66
2022-09-12T05:53:32.461Z,95152.22
2022-09-12T05:56:08.335Z,95138.63
2022-09-12T05:58:39.888Z,95121.38
2022-09-12T06:01:11.442Z,95080.97
2022-09-12T06:03:43.301Z,95131.31
2022-09-12T06:06:13.697Z,95138.59
2022-09-12T06:08:43.251Z,95123.66
2022-09-12T06:11:13.487Z,95126.91
2022-09-12T06:13:43.913Z,95109.66
2022-09-12T06:16:14.238Z,95116.09
2022-09-12T06:18:42.936Z,95084.25
2022-09-12T06:21:12.856Z,95129.16
2022-09-12T06:23:41.702Z,95131.41
2022-09-12T06:26:11.671Z,95115.34
2022-09-12T06:28:41.855Z,95131.28
2022-09-12T06:31:13.208Z,95137.44
2022-09-12T06:33:43.129Z,95137.47
2022-09-12T06:36:13.423Z,95109.84
2022-09-12T06:38:41.778Z,95121.06
2022-09-12T06:41:12.490Z,95145.94
2022-09-12T06:43:41.171Z,95095.34
2022-09-12T06:46:09.718Z,95149.97
2022-09-12T06:48:41.950Z,95149.47
2022-09-12T06:51:13.460Z,95162.84
2022-09-12T06:53:42.283Z,95163.53
2022-09-12T06:56:12.322Z,95154.13
2022-09-12T06:58:41.029Z,95157.31
2022-09-12T07:01:11.004Z,95141.59
2022-09-12T07:03:40.916Z,95157.13
2022-09-12T07:06:11.032Z,95171.56
2022-09-12T07:08:41.035Z,95161.44
2022-09-12T07:11:15.154Z,95169.53
2022-09-12T07:13:44.829Z,95165.50
2022-09-12T07:16:18.676Z,95156.78
2022-09-12T07:18:51.893Z,95165.97
2022-09-12T07:21:20.583Z,95118.19
2022-09-12T07:23:49.160Z,95171.00
2022-09-12T07:26:18.044Z,95174.69
2022-09-12T07:28:46.239Z,95174.94
2022-09-12T07:31:16.336Z,95153.09
2022-09-12T07:33:45.125Z,95101.91
2022-09-12T07:36:16.501Z,95164.47
2022-09-12T07:38:45.879Z,95171.03
2022-09-12T07:41:14.682Z,95174.31
2022-09-12T07:43:42.996Z,95145.66
2022-09-12T07:46:11.518Z,95162.88
2022-09-12T07:48:40.976Z,95156.38
2022-09-12T07:51:11.668Z,95164.03
2022-09-12T07:53:43.349Z,95156.63
2022-09-12T07:56:12.919Z,95162.75
2022-09-12T07:58:43.260Z,95143.72
2022-09-12T08:01:14.674Z,95156.59
2022-09-12T08:03:44.176Z,95134.81
2022-09-12T08:06:15.051Z,95136.91
2022-09-12T08:08:44.432Z,95170.91
2022-09-12T08:11:14.821Z,95173.03
2022-09-12T08:13:43.863Z,95150.28
2022-09-12T08:16:14.153Z,95149.66
2022-09-12T08:18:42.691Z,95064.66
2022-09-12T08:21:14.553Z,95174.00
2022-09-12T08:23:42.561Z,95166.63
2022-09-12T08:26:13.262Z,95180.44
2022-09-12T08:28:41.791Z,95172.84
2022-09-12T08:31:12.523Z,95141.44
2022-09-12T08:33:40.929Z,95166.94
2022-09-12T08:36:11.883Z,95155.13
2022-09-12T08:38:41.698Z,95141.75
2022-09-12T08:41:20.115Z,95168.59
2022-09-12T08:44:00.707Z,95157.47
2022-09-12T08:46:36.440Z,95145.22
2022-09-12T08:49:06.733Z,95147.56
2022-09-12T08:51:36.912Z,95147.28
2022-09-12T08:54:10.983Z,95152.63
2022-09-12T08:56:40.490Z,95149.09
2022-09-12T08:59:10.099Z,95123.75
2022-09-12T09:01:43.743Z,95128.06
2022-09-12T09:04:26.909Z,95135.84
2022-09-12T09:07:16.216Z,95134.38
2022-09-12T09:09:59.665Z,95121.91
2022-09-12T09:12:41.625Z,95085.88
2022-09-12T09:15:24.844Z,95086.38
2022-09-12T09:17:56.073Z,95093.38
2022-09-12T09:20:31.312Z,95092.91
2022-09-12T09:23:04.578Z,95114.22
2022-09-12T09:25:43.998Z,95149.63
2022-09-12T09:28:18.530Z,95056.09
2022-09-12T09:30:47.641Z,95122.25
2022-09-12T09:33:23.450Z,95109.03
2022-09-12T09:36:00.524Z,95116.94
2022-09-12T09:38:41.542Z,95104.78
2022-09-12T09:41:39.272Z,95114.38
2022-09-12T09:44:08.955Z,95102.63
2022-09-12T09:46:37.037Z,95111.09
2022-09-12T09:49:07.800Z,95105.63
2022-09-12T09:51:37.795Z,95124.28
2022-09-12T09:54:18.856Z,95101.97
2022-09-12T09:56:47.149Z,95094.13
2022-09-12T09:59:19.202Z,95086.31
2022-09-12T10:01:49.759Z,95078.63
2022-09-12T10:04:22.450Z,95075.47
2022-09-12T10:06:54.381Z,95054.59
2022-09-12T10:09:27.816Z,95086.72
2022-09-12T10:11:56.676Z,95083.25
2022-09-12T10:14:35.099Z,95075.75
2022-09-12T10:17:22.778Z,95072.22
2022-09-12T10:20:04.846Z,95092.50
2022-09-12T10:22:39.643Z,95060.66
2022-09-12T10:25:13.464Z,95053.41
2022-09-12T10:27:43.048Z,95081.31
2022-09-12T10:30:21.747Z,95087.97
2022-09-12T10:32:51.813Z,95089.63
2022-09-12T10:35:22.207Z,95080.16
2022-09-12T10:37:56.706Z,95079.84
2022-09-12T10:40:27.518Z,95102.69
2022-09-12T10:42:57.456Z,95070.09
2022-09-12T10:45:30.131Z,95049.81
2022-09-12T10:48:03.060Z,95083.97
2022-09-12T10:50:37.600Z,95086.56
2022-09-12T10:53:20.349Z,95093.22
2022-09-12T10:56:02.944Z,95089.00
2022-09-12T10:59:11.867Z,95041.16
2022-09-12T11:01:47.175Z,95091.50
2022-09-12T11:04:42.522Z,95094.13
2022-09-12T11:07:34.177Z,95091.81
2022-09-12T11:10:10.633Z,95058.00
2022-09-12T11:12:45.072Z,95098.91
2022-09-12T11:15:39.512Z,95097.03
2022-09-12T11:18:23.433Z,95092.25
2022-09-12T11:21:15.696Z,95090.44
2022-09-12T11:24:07.180Z,95087.16
2022-09-12T11:26:46.067Z,95069.44
2022-09-12T11:29:26.600Z,95070.66
2022-09-12T11:32:11.566Z,95050.38
2022-09-12T11:34:55.106Z,95101.06
2022-09-12T11:37:44.824Z,95088.94
2022-09-12T11:40:27.853Z,95088.22
2022-09-12T11:43:00.765Z,95077.50
2022-09-12T11:45:33.710Z,95061.34
2022-09-12T11:48:08.663Z,95084.97
2022-09-12T11:50:38.333Z,95094.94
2022-09-12T11:53:16.345Z,95091.44
2022-09-12T11:55:53.517Z,95087.16
2022-09-12T11:58:26.798Z,95092.31
2022-09-12T12:00:58.860Z,95104.53
2022-09-12T12:03:32.335Z,95068.25
2022-09-12T12:06:07.128Z,95087.41
2022-09-12T12:08:40.723Z,95087.16
2022-09-12T12:11:09.926Z,95041.84
2022-09-12T12:13:43.284Z,95091.63
2022-09-12T12:16:17.566Z,95081.59
2022-09-12T12:18:45.865Z,95065.63
2022-09-12T12:21:39.434Z,95045.56
2022-09-12T12:24:20.426Z,95085.41
2022-09-12T12:27:00.432Z,95011.13
2022-09-12T12:29:43.862Z,95044.22
2022-09-12T12:32:27.211Z,95069.50
2022-09-12T12:35:40.554Z,95058.69
2022-09-12T12:38:29.809Z,95030.59
2022-09-12T12:41:47.697Z,95064.41
2022-09-12T12:44:50.337Z,95077.94
2022-09-12T12:47:21.889Z,95077.59
2022-09-12T12:49:54.477Z,95074.19
2022-09-12T12:52:22.961Z,95029.38
2022-09-12T12:54:56.015Z,95069.06
2022-09-12T12:57:42.008Z,95069.22
2022-09-12T13:00:29.937Z,95084.97
2022-09-12T13:03:00.234Z,95082.41
2022-09-12T13:05:31.850Z,95066.25
2022-09-12T13:08:07.297Z,95045.63
2022-09-12T13:10:35.784Z,95090.81
2022-09-12T13:13:08.761Z,95083.03
2022-09-12T13:15:57.371Z,95074.41
2022-09-12T13:18:28.879Z,95041.59
2022-09-12T13:21:10.213Z,95048.28
2022-09-12T13:23:38.292Z,95077.84
2022-09-12T13:26:12.234Z,95094.06
2022-09-12T13:28:41.479Z,95072.53
2022-09-12T13:31:16.658Z,95079.09
2022-09-12T13:33:47.939Z,95029.75
2022-09-12T13:36:33.622Z,94922.16
2022-09-12T13:39:15.896Z,95018.16
2022-09-12T13:42:08.876Z,95025.25
2022-09-12T13:44:44.346Z,95020.69
2022-09-12T13:47:16.688Z,95074.59
2022-09-12T13:49:46.635Z,95068.28
2022-09-12T13:52:20.082Z,95071.25
2022-09-12T13:54:51.664Z,95059.97
2022-09-12T13:57:36.196Z,95068.97
2022-09-12T14:00:08.882Z,95053.22
2022-09-12T14:02:38.211Z,95012.06
2022-09-12T14:05:14.837Z,95065.25
2022-09-12T14:07:55.250Z,95074.72
2022-09-12T14:10:30.244Z,95074.00
2022-09-12T14:12:59.472Z,95054.50
2022-09-12T14:15:31.428Z,95023.28
2022-09-12T14:18:01.794Z,95068.94
2022-09-12T14:20:32.690Z,95073.50
2022-09-12T14:23:03.707Z,95075.22
2022-09-12T14:25:39.075Z,95062.53
2022-09-12T14:28:07.635Z,95062.97
2022-09-12T14:30:39.030Z,95064.16
2022-09-12T14:33:19.838Z,95076.66
2022-09-12T14:35:49.913Z,95073.88
2022-09-12T14:38:25.881Z,95072.34
2022-09-12T14:41:00.815Z,95073.44
2022-09-12T14:43:31.534Z,95053.50
2022-09-12T14:46:04.630Z,95067.13
2022-09-12T14:48:37.454Z,95074.59
2022-09-12T14:51:06.468Z,95058.56
2022-09-12T14:53:36.587Z,95080.16
2022-09-12T14:56:10.141Z,95074.66
2022-09-12T14:58:39.588Z,95071.66
2022-09-12T15:01:25.258Z,95062.66
2022-09-12T15:03:55.549Z,95074.44
2022-09-12T15:06:28.633Z,95062.38
2022-09-12T15:08:58.948Z,95058.44
2022-09-12T15:11:27.172Z,95086.25
2022-09-12T15:13:55.179Z,95078.81
2022-09-12T15:16:24.442Z,95083.13
2022-09-12T15:18:52.625Z,95070.63
2022-09-12T15:21:22.300Z,95026.88
2022-09-12T15:23:51.317Z,95035.47
2022-09-12T15:26:20.848Z,95089.75
2022-09-12T15:28:49.386Z,95025.31
2022-09-12T15:31:26.524Z,95057.75
2022-09-12T15:33:55.517Z,95083.09
2022-09-12T15:36:24.847Z,95070.25
2022-09-12T15:38:53.204Z,95084.28
2022-09-12T15:41:23.234Z,95062.03
2022-09-12T15:43:51.659Z,95068.25
2022-09-12T15:46:20.359Z,95067.50
2022-09-12T15:48:50.197Z,95046.41
2022-09-12T15:51:20.493Z,95066.34
2022-09-12T15:53:50.206Z,95065.16
2022-09-12T15:56:20.087Z,95003.03
2022-09-12T15:58:59.186Z,95057.75
2022-09-12T16:01:29.400Z,95058.91
2022-09-12T16:03:59.121Z,95054.97
2022-09-12T16:06:27.925Z,95055.78
2022-09-12T16:08:56.285Z,95060.47
2022-09-12T16:11:26.161Z,95044.81
2022-09-12T16:13:55.014Z,95067.50
2022-09-12T16:16:23.057Z,95070.59
2022-09-12T16:18:50.985Z,95074.53
2022-09-12T16:21:20.219Z,95066.69
2022-09-12T16:23:49.514Z,95043.25
2022-09-12T16:26:18.362Z,95072.94
2022-09-12T16:28:46.397Z,95076.06
2022-09-12T16:31:15.306Z,95080.78
2022-09-12T16:33:43.338Z,95045.22
2022-09-12T16:36:13.145Z,95056.53
2022-09-12T16:38:46.963Z,95078.41
2022-09-12T16:41:15.955Z,95079.22
2022-09-12T16:43:44.319Z,95063.59
2022-09-12T16:46:14.261Z,95062.78
2022-09-12T16:48:48.101Z,95080.38
2022-09-12T16:51:21.691Z,95083.09
2022-09-12T16:53:51.706Z,95080.72
2022-09-12T16:56:19.997Z,95077.63
2022-09-12T16:58:48.882Z,95080.72
2022-09-12T17:01:18.650Z,95096.34
2022-09-12T17:03:47.125Z,95081.09
2022-09-12T17:06:16.744Z,95093.59
2022-09-12T17:08:47.022Z,95101.00
2022-09-12T17:11:18.212Z,95072.00
2022-09-12T17:14:06.135Z,95050.91
2022-09-12T17:16:35.523Z,95062.22
2022-09-12T17:19:04.072Z,95110.28
2022-09-12T17:21:32.416Z,95115.78
2022-09-12T17:24:00.323Z,95104.84
2022-09-12T17:26:29.583Z,95102.47
2022-09-12T17:28:57.417Z,95062.97
2022-09-12T17:31:25.473Z,95107.16
2022-09-12T17:33:57.336Z,95130.16
2022-09-12T17:36:25.778Z,95111.03
2022-09-12T17:38:54.325Z,95125.09
2022-09-12T17:41:23.891Z,95069.53
2022-09-12T17:43:56.563Z,95124.28
2022-09-12T17:46:26.120Z,95067.19
2022-09-12T17:48:54.989Z,95131.28
2022-09-12T17:51:24.966Z,95115.63
2022-09-12T17:53:59.060Z,95111.69
2022-09-12T17:56:28.016Z,95109.28
2022-09-12T17:58:57.912Z,95140.53
2022-09-12T18:01:44.603Z,95127.22
2022-09-12T18:04:12.596Z,95140.06
2022-09-12T18:06:47.713Z,95130.25
2022-09-12T18:09:17.702Z,95145.84
2022-09-12T18:11:45.825Z,95134.13
2022-09-12T18:14:15.436Z,95149.31
2022-09-12T18:16:43.556Z,95144.22
2022-09-12T18:19:11.597Z,95120.22
2022-09-12T18:21:39.891Z,95132.03
2022-09-12T18:24:07.771Z,95134.25
2022-09-12T18:26:35.879Z,95147.16
2022-09-12T18:29:03.783Z,95127.16
2022-09-12T18:31:33.100Z,95163.44
2022-09-12T18:34:01.435Z,95152.53
2022-09-12T18:36:30.081Z,95144.38
2022-09-12T18:38:59.274Z,95098.94
2022-09-12T18:41:28.994Z,95110.31
2022-09-12T18:43:57.921Z,95099.34
2022-09-12T18:46:26.860Z,95148.63
2022-09-12T18:48:58.443Z,95075.00
2022-09-12T18:51:31.326Z,95093.03
2022-09-12T18:54:01.463Z,95152.19
2022-09-12T18:56:32.932Z,95115.41
2022-09-12T18:59:01.769Z,95123.66
2022-09-12T19:01:31.173Z,95148.66
2022-09-12T19:04:04.662Z,95150.97
2022-09-12T19:06:35.396Z,95144.66
2022-09-12T19:09:07.607Z,95118.84
2022-09-12T19:11:38.241Z,95100.41
2022-09-12T19:14:07.276Z,95147.78
2022-09-12T19:16:36.079Z,95128.19
2022-09-12T19:19:06.294Z,95153.63
2022-09-12T19:21:35.345Z,95141.53
2022-09-12T19:24:06.993Z,95156.38
2022-09-12T19:26:35.776Z,95161.81
2022-09-12T19:29:03.691Z,95139.88
2022-09-12T19:31:32.442Z,95141.47
2022-09-12T19:34:01.860Z,95110.19
2022-09-12T19:36:49.121Z,95147.69
2022-09-12T19:39:17.655Z,95157.94
2022-09-12T19:41:46.103Z,95144.63
2022-09-12T19:44:14.076Z,95154.44
2022-09-12T19:46:42.195Z,95130.22
2022-09-12T19:49:12.010Z,95138.41
2022-09-12T19:51:41.680Z,95141.47
2022-09-12T19:54:09.657Z,95158.69
2022-09-12T19:56:37.573Z,95166.13
2022-09-12T19:59:05.443Z,95121.84
2022-09-12T20:01:34.721Z,95166.94
2022-09-12T20:04:03.129Z,95148.53
2022-09-12T20:06:31.185Z,95156.72
2022-09-12T20:09:00.406Z,95164.19
2022-09-12T20:11:28.277Z,95170.38
2022-09-12T20:13:56.115Z,95128.06
2022-09-12T20:16:28.468Z,95127.94
2022-09-12T20:18:58.928Z,95166.34
2022-09-12T20:21:31.718Z,95116.19
2022-09-12T20:24:06.531Z,95166.28
2022-09-12T20:26:35.053Z,95168.94
2022-09-12T20:29:03.314Z,95144.19
2022-09-12T20:31:31.982Z,95127.34
2022-09-12T20:34:00.491Z,95162.16
2022-09-12T20:36:28.834Z,95165.22
2022-09-12T20:39:00.095Z,95165.16
2022-09-12T20:41:32.176Z,95146.34
2022-09-12T20:44:00.161Z,95172.50
2022-09-12T20:46:29.404Z,95173.63
2022-09-12T20:48:58.456Z,95164.66
2022-09-12T20:51:26.806Z,95131.16
2022-09-12T20:53:55.620Z,95164.06
2022-09-12T20:56:24.304Z,95173.75
2022-09-12T20:58:53.793Z,95182.97
2022-09-12T21:01:22.103Z,95171.34
2022-09-12T21:03:50.327Z,95159.09
2022-09-12T21:06:19.557Z,95156.75
2022-09-12T21:08:48.609Z,95170.78
2022-09-12T21:11:17.741Z,95167.69
2022-09-12T21:13:45.862Z,95176.59
2022-09-12T21:16:16.973Z,95175.34
2022-09-12T21:18:45.672Z,95181.16
2022-09-12T21:21:15.791Z,95144.56
2022-09-12T21:23:43.720Z,95183.78
2022-09-12T21:26:11.998Z,95184.50
2022-09-12T21:28:40.007Z,95186.75
2022-09-12T21:31:08.083Z,95160.47
2022-09-12T21:33:37.582Z,95186.66
2022-09-12T21:36:06.683Z,95134.88
2022-09-12T21:38:35.217Z,95181.13
2022-09-12T21:41:08.091Z,95184.25
2022-09-12T21:43:36.651Z,95168.94
2022-09-12T21:46:05.473Z,95163.91
2022-09-12T21:48:33.841Z,95141.50
2022-09-12T21:51:03.537Z,95187.72
2022-09-12T21:53:32.103Z,95185.75
2022-09-12T21:56:02.672Z,95186.47
2022-09-12T21:58:30.599Z,95177.88
2022-09-12T22:00:59.299Z,95173.25
2022-09-12T22:03:27.291Z,95173.84
2022-09-12T22:05:58.805Z,95176.16
2022-09-12T22:08:28.573Z,95173.81
2022-09-12T22:11:00.901Z,95167.53
2022-09-12T22:13:32.480Z,95124.31
2022-09-12T22:16:03.162Z,95167.06
2022-09-12T22:18:33.373Z,95164.16
2022-09-12T22:21:03.617Z,95171.16
2022-09-12T22:23:50.457Z,95169.59
2022-09-12T22:26:18.482Z,95168.75
2022-09-12T22:28:47.506Z,95172.59
2022-09-12T22:31:16.651Z,95159.69
2022-09-12T22:33:45.466Z,95169.06
2022-09-12T22:36:13.562Z,95171.06
2022-09-12T22:38:42.846Z,95172.97
2022-09-12T22:41:12.432Z,95171.78
2022-09-12T22:43:40.923Z,95132.47
2022-09-12T22:46:09.344Z,95119.91
2022-09-12T22:48:37.793Z,95171.69
2022-09-12T22:51:06.189Z,95131.66
2022-09-12T22:53:34.603Z,95170.88
2022-09-12T22:56:05.157Z,95162.34
2022-09-12T22:58:33.276Z,95165.44
2022-09-12T23:01:01.199Z,95167.31
2022-09-12T23:03:29.107Z,95132.06
2022-09-12T23:05:57.002Z,95168.44
2022-09-12T23:08:27.376Z,95142.34
2022-09-12T23:11:03.107Z,95157.16
2022-09-12T23:13:31.065Z,95152.09
2022-09-12T23:15:59.742Z,95141.16
2022-09-12T23:18:28.224Z,95135.31
2022-09-12T23:21:00.795Z,95130.97
2022-09-12T23:23:29.199Z,95135.31
2022-09-12T23:26:11.303Z,95095.75
2022-09-12T23:28:40.324Z,95102.59
2022-09-12T23:31:09.496Z,95142.63
2022-09-12T23:33:37.952Z,95137.19
2022-09-12T23:36:07.639Z,95134.03
2022-09-12T23:38:36.614Z,95140.22
2022-09-12T23:41:05.323Z,95139.53
2022-09-12T23:43:35.135Z,95143.47
2022-09-12T23:46:03.211Z,95090.91
2022-09-12T23:48:31.599Z,95139.84
2022-09-12T23:50:59.685Z,95140.13
2022-09-12T23:53:28.408Z,95134.72
2022-09-12T23:55:56.422Z,95128.06
2022-09-12T23:58:24.897Z,95128.75
